createdAt,value
2022-11-24T00:01:27.289Z,88022.88
2022-11-24T00:04:11.995Z,88019.16
2022-11-24T00:06:56.819Z,88016.78
2022-11-24T00:09:41.512Z,88025.19
2022-11-24T00:12:26.349Z,88030.88
2022-11-24T00:15:10.902Z,88028.47
2022-11-24T00:17:55.793Z,88043.47
2022-11-24T00:20:40.492Z,88045.34
2022-11-24T00:23:25.354Z,88046.75
2022-11-24T00:26:10.075Z,88050.66
2022-11-24T00:28:54.852Z,88061.63
2022-11-24T00:31:39.738Z,88068.19
2022-11-24T00:34:24.392Z,88068.00
2022-11-24T00:37:09.298Z,88068.25
2022-11-24T00:39:54.115Z,88083.13
2022-11-24T00:42:39.021Z,88080.31
2022-11-24T00:45:23.736Z,88079.91
2022-11-24T00:48:08.529Z,88079.31
2022-11-24T00:50:53.245Z,88081.78
2022-11-24T00:53:38.046Z,88087.34
2022-11-24T00:56:24.005Z,88082.63
2022-11-24T00:59:08.797Z,88085.25
2022-11-24T01:01:53.583Z,88091.28
2022-11-24T01:04:38.220Z,88094.78
2022-11-24T01:07:22.864Z,88098.31
2022-11-24T01:10:07.621Z,88102.69
2022-11-24T01:12:52.388Z,88105.84
2022-11-24T01:15:37.244Z,88108.84
2022-11-24T01:18:22.532Z,88117.13
2022-11-24T01:21:10.274Z,88127.66
2022-11-24T01:23:55.067Z,88123.19
2022-11-24T01:26:39.799Z,88131.94
2022-11-24T01:29:24.578Z,88131.72
2022-11-24T01:32:09.349Z,88135.75
2022-11-24T01:34:53.978Z,88149.34
2022-11-24T01:37:39.090Z,88141.47
2022-11-24T01:40:23.849Z,88142.75
2022-11-24T01:43:08.574Z,88139.69
2022-11-24T01:45:53.476Z,88134.59
2022-11-24T01:48:38.647Z,88129.72
2022-11-24T01:51:23.539Z,88132.25
2022-11-24T01:54:08.245Z,88132.91
2022-11-24T01:56:52.984Z,88143.72
2022-11-24T01:59:37.569Z,88142.97
2022-11-24T02:02:22.484Z,88147.72
2022-11-24T02:05:07.151Z,88148.25
2022-11-24T02:07:52.063Z,88162.94
2022-11-24T02:10:37.329Z,88158.09
2022-11-24T02:13:22.107Z,88154.09
2022-11-24T02:16:06.910Z,88152.66
2022-11-24T02:18:51.575Z,88152.94
2022-11-24T02:21:36.318Z,88158.75
2022-11-24T02:24:21.174Z,88159.44
2022-11-24T02:27:05.904Z,88155.25
2022-11-24T02:29:50.688Z,88158.53
2022-11-24T02:32:35.387Z,88147.53
2022-11-24T02:35:20.138Z,88149.34
2022-11-24T02:38:04.909Z,88145.75
2022-11-24T02:40:49.666Z,88152.75
2022-11-24T02:43:34.391Z,88161.72
2022-11-24T02:46:19.308Z,88157.22
2022-11-24T02:49:03.895Z,88158.44
2022-11-24T02:51:48.729Z,88155.28
2022-11-24T02:54:33.728Z,88159.50
2022-11-24T02:57:18.826Z,88174.72
2022-11-24T03:00:03.527Z,88183.53
2022-11-24T03:02:48.322Z,88186.75
2022-11-24T03:05:33.116Z,88183.78
2022-11-24T03:08:17.752Z,88181.19
2022-11-24T03:11:02.615Z,88187.25
2022-11-24T03:13:47.224Z,88202.28
2022-11-24T03:16:31.995Z,88196.84
2022-11-24T03:19:16.681Z,88199.13
2022-11-24T03:22:01.540Z,88201.91
2022-11-24T03:24:46.173Z,88200.50
2022-11-24T03:27:30.894Z,88208.22
2022-11-24T03:30:15.539Z,88207.75
2022-11-24T03:33:00.381Z,88207.69
2022-11-24T03:35:45.131Z,88213.31
2022-11-24T03:38:29.921Z,88218.47
2022-11-24T03:41:14.684Z,88221.59
2022-11-24T03:43:59.430Z,88227.69
2022-11-24T03:46:44.290Z,88230.72
2022-11-24T03:49:28.973Z,88222.28
2022-11-24T03:52:13.644Z,88215.81
2022-11-24T03:54:58.274Z,88211.66
2022-11-24T03:57:43.057Z,88212.13
2022-11-24T04:00:27.824Z,88215.63
2022-11-24T04:03:12.650Z,88215.88
2022-11-24T04:05:57.335Z,88223.72
2022-11-24T04:08:42.077Z,88229.41
2022-11-24T04:11:26.855Z,88241.66
2022-11-24T04:14:13.795Z,88243.75
2022-11-24T04:16:58.907Z,88252.66
2022-11-24T04:19:43.457Z,88254.03
2022-11-24T04:22:28.147Z,88245.16
2022-11-24T04:25:12.833Z,88258.25
2022-11-24T04:27:57.645Z,88262.75
2022-11-24T04:30:42.502Z,88249.31
2022-11-24T04:33:27.188Z,88257.97
2022-11-24T04:36:12.009Z,88259.13
2022-11-24T04:39:24.378Z,88259.66
2022-11-24T04:42:01.649Z,88265.56
2022-11-24T04:44:46.343Z,88265.44
2022-11-24T04:47:31.088Z,88262.94
2022-11-24T04:50:15.890Z,88271.59
2022-11-24T04:53:00.592Z,88280.97
2022-11-24T04:55:45.324Z,88275.34
2022-11-24T04:58:29.959Z,88269.91
2022-11-24T05:01:14.885Z,88266.59
2022-11-24T05:03:59.422Z,88274.22
2022-11-24T05:06:44.171Z,88266.06
2022-11-24T05:09:41.949Z,88272.41
2022-11-24T05:12:33.634Z,88267.88
2022-11-24T05:15:18.416Z,88276.31
2022-11-24T05:18:03.228Z,88271.41
2022-11-24T05:20:48.020Z,88275.34
2022-11-24T05:23:32.803Z,88284.00
2022-11-24T05:26:17.591Z,88289.31
2022-11-24T05:29:02.559Z,88292.31
2022-11-24T05:31:47.322Z,88299.78
2022-11-24T05:34:32.766Z,88304.97
2022-11-24T05:37:17.756Z,88308.47
2022-11-24T05:40:02.582Z,88300.56
2022-11-24T05:42:48.333Z,88297.31
2022-11-24T05:45:33.605Z,88304.34
2022-11-24T05:48:18.490Z,88294.72
2022-11-24T05:51:07.877Z,88286.38
2022-11-24T05:53:53.935Z,88285.94
2022-11-24T05:56:38.757Z,88289.22
2022-11-24T05:59:23.524Z,88286.31
2022-11-24T06:02:08.577Z,88294.19
2022-11-24T06:04:53.532Z,88301.94
2022-11-24T06:07:38.492Z,88308.03
2022-11-24T06:10:23.294Z,88318.38
2022-11-24T06:13:08.117Z,88318.91
2022-11-24T06:15:53.300Z,88326.91
2022-11-24T06:18:38.223Z,88321.94
2022-11-24T06:21:23.032Z,88323.81
2022-11-24T06:24:07.709Z,88335.84
2022-11-24T06:26:52.602Z,88341.03
2022-11-24T06:29:37.383Z,88345.69
2022-11-24T06:32:22.125Z,88336.72
2022-11-24T06:35:06.875Z,88334.81
2022-11-24T06:37:51.661Z,88333.47
2022-11-24T06:40:36.380Z,88323.06
2022-11-24T06:43:21.342Z,88317.91
2022-11-24T06:46:06.061Z,88326.72
2022-11-24T06:48:50.745Z,88322.56
2022-11-24T06:51:36.839Z,88321.84
2022-11-24T06:54:21.660Z,88324.94
2022-11-24T06:57:06.404Z,88323.34
2022-11-24T06:59:51.105Z,88322.22
2022-11-24T07:02:37.320Z,88330.94
2022-11-24T07:05:24.788Z,88332.88
2022-11-24T07:08:14.612Z,88332.91
2022-11-24T07:11:02.358Z,88326.78
2022-11-24T07:13:47.103Z,88333.38
2022-11-24T07:16:31.935Z,88335.97
2022-11-24T07:19:21.612Z,88339.28
2022-11-24T07:22:09.348Z,88332.75
2022-11-24T07:24:54.031Z,88340.22
2022-11-24T07:27:38.770Z,88331.44
2022-11-24T07:30:23.512Z,88329.03
2022-11-24T07:33:08.267Z,88325.06
2022-11-24T07:35:53.130Z,88324.28
2022-11-24T07:38:37.963Z,88332.81
2022-11-24T07:41:22.852Z,88337.19
2022-11-24T07:44:07.657Z,88343.72
2022-11-24T07:46:52.352Z,88343.63
2022-11-24T07:49:37.094Z,88355.72
2022-11-24T07:52:21.761Z,88357.94
2022-11-24T07:55:06.443Z,88357.53
2022-11-24T07:57:51.212Z,88352.78
2022-11-24T08:00:36.062Z,88352.09
2022-11-24T08:03:20.800Z,88360.69
2022-11-24T08:06:24.127Z,88356.41
2022-11-24T08:09:10.453Z,88362.63
2022-11-24T08:11:55.235Z,88368.81
2022-11-24T08:14:40.101Z,88363.47
2022-11-24T08:17:24.845Z,88357.69
2022-11-24T08:20:09.756Z,88368.09
2022-11-24T08:22:54.700Z,88366.34
2022-11-24T08:25:39.843Z,88359.63
2022-11-24T08:28:24.658Z,88371.31
2022-11-24T08:31:09.578Z,88371.22
2022-11-24T08:33:54.330Z,88370.53
2022-11-24T08:36:39.267Z,88372.34
2022-11-24T08:39:24.050Z,88371.09
2022-11-24T08:42:08.768Z,88364.31
2022-11-24T08:44:58.861Z,88375.41
2022-11-24T08:47:43.884Z,88371.63
2022-11-24T08:50:28.623Z,88355.50
2022-11-24T08:53:13.433Z,88356.88
2022-11-24T08:55:58.232Z,88351.41
2022-11-24T08:58:43.015Z,88344.09
2022-11-24T09:01:28.224Z,88345.13
2022-11-24T09:04:13.366Z,88353.72
2022-11-24T09:06:58.021Z,88362.50
2022-11-24T09:09:42.828Z,88377.50
2022-11-24T09:12:27.549Z,88383.69
2022-11-24T09:15:12.452Z,88394.28
2022-11-24T09:17:57.258Z,88384.78
2022-11-24T09:20:42.040Z,88397.78
2022-11-24T09:23:26.955Z,88404.06
2022-11-24T09:26:11.612Z,88403.16
2022-11-24T09:28:56.458Z,88406.84
2022-11-24T09:31:41.294Z,88412.25
2022-11-24T09:34:26.031Z,88417.53
2022-11-24T09:37:10.848Z,88416.53
2022-11-24T09:39:55.661Z,88414.34
2022-11-24T09:42:40.424Z,88407.88
2022-11-24T09:45:48.917Z,88405.97
2022-11-24T09:48:30.339Z,88409.75
2022-11-24T09:51:14.964Z,88413.88
2022-11-24T09:53:59.842Z,88404.88
2022-11-24T09:56:44.670Z,88411.44
2022-11-24T09:59:29.522Z,88408.22
2022-11-24T10:02:14.231Z,88412.94
2022-11-24T10:04:59.101Z,88414.66
2022-11-24T10:07:44.458Z,88414.47
2022-11-24T10:10:29.491Z,88417.94
2022-11-24T10:13:14.268Z,88418.38
2022-11-24T10:15:59.019Z,88414.03
2022-11-24T10:18:44.404Z,88416.47
2022-11-24T10:21:29.226Z,88417.47
2022-11-24T10:24:14.027Z,88418.16
2022-11-24T10:26:58.875Z,88417.56
2022-11-24T10:29:43.598Z,88421.34
2022-11-24T10:32:28.375Z,88403.09
2022-11-24T10:35:13.075Z,88404.06
2022-11-24T10:37:57.838Z,88402.56
2022-11-24T10:40:56.999Z,88401.78
2022-11-24T10:43:42.590Z,88404.38
2022-11-24T10:46:27.543Z,88404.56
2022-11-24T10:49:12.807Z,88405.00
2022-11-24T10:51:57.540Z,88401.00
2022-11-24T10:54:42.225Z,88406.41
2022-11-24T10:57:27.033Z,88396.00
2022-11-24T11:00:11.756Z,88396.00
2022-11-24T11:02:56.543Z,88402.44
2022-11-24T11:05:41.789Z,88392.91
2022-11-24T11:08:26.466Z,88397.44
2022-11-24T11:11:11.080Z,88404.63
2022-11-24T11:14:02.948Z,88408.97
2022-11-24T11:16:48.673Z,88404.75
2022-11-24T11:19:48.429Z,88401.63
2022-11-24T11:22:33.880Z,88405.47
2022-11-24T11:25:18.572Z,88407.72
2022-11-24T11:28:08.597Z,88408.78
2022-11-24T11:34:04.628Z,88416.00
2022-11-24T11:36:51.234Z,88407.59
2022-11-24T11:39:36.043Z,88406.03
2022-11-24T11:42:45.364Z,88393.88
2022-11-24T11:45:25.591Z,88406.25
2022-11-24T11:48:10.407Z,88407.84
2022-11-24T11:54:00.628Z,88410.94
2022-11-24T11:56:45.718Z,88414.38
2022-11-24T11:59:30.573Z,88417.31
2022-11-24T12:02:15.345Z,88401.41
2022-11-24T12:05:00.058Z,88394.44
2022-11-24T12:07:44.865Z,88395.75
2022-11-24T12:10:29.466Z,88403.31
2022-11-24T12:13:14.287Z,88405.41
2022-11-24T12:15:58.886Z,88402.81
2022-11-24T12:18:59.299Z,88402.28
2022-11-24T12:21:44.486Z,88397.72
2022-11-24T12:24:29.201Z,88400.81
2022-11-24T12:27:16.755Z,88394.88
2022-11-24T12:30:06.162Z,88405.59
2022-11-24T12:32:50.881Z,88398.06
2022-11-24T12:35:35.621Z,88399.81
2022-11-24T12:38:20.314Z,88388.50
2022-11-24T12:41:39.904Z,88390.47
2022-11-24T12:44:09.920Z,88400.56
2022-11-24T12:46:54.784Z,88401.72
2022-11-24T12:49:39.992Z,88392.50
2022-11-24T12:52:24.765Z,88393.91
2022-11-24T12:55:09.716Z,88394.72
2022-11-24T12:57:54.432Z,88395.03
2022-11-24T13:00:39.181Z,88392.56
2022-11-24T13:03:23.981Z,88390.25
2022-11-24T13:06:08.714Z,88386.78
2022-11-24T13:08:53.384Z,88385.91
2022-11-24T13:11:38.279Z,88383.72
2022-11-24T13:14:22.947Z,88380.53
2022-11-24T13:17:30.047Z,88381.38
2022-11-24T13:20:12.748Z,88379.03
2022-11-24T13:22:57.410Z,88380.88
2022-11-24T13:25:42.147Z,88378.72
2022-11-24T13:28:53.959Z,88381.91
2022-11-24T13:31:31.817Z,88388.06
2022-11-24T13:34:16.539Z,88388.97
2022-11-24T13:37:28.927Z,88387.75
2022-11-24T13:40:06.109Z,88386.03
2022-11-24T13:42:50.916Z,88389.78
2022-11-24T13:45:35.546Z,88384.44
2022-11-24T13:48:20.774Z,88385.06
2022-11-24T13:51:05.953Z,88378.25
2022-11-24T13:53:50.756Z,88375.91
2022-11-24T13:56:35.701Z,88365.38
2022-11-24T13:59:20.483Z,88363.69
2022-11-24T14:02:05.311Z,88355.25
2022-11-24T14:04:50.113Z,88359.66
2022-11-24T14:07:34.811Z,88357.16
2022-11-24T14:10:19.949Z,88343.06
2022-11-24T14:13:04.834Z,88354.84
2022-11-24T14:15:49.494Z,88346.38
2022-11-24T14:18:34.190Z,88351.19
2022-11-24T14:21:18.896Z,88347.56
2022-11-24T14:24:03.484Z,88342.03
2022-11-24T14:26:48.238Z,88346.09
2022-11-24T14:29:32.920Z,88337.44
2022-11-24T14:32:17.710Z,88342.03
2022-11-24T14:35:02.464Z,88344.72
2022-11-24T14:37:47.132Z,88342.34
2022-11-24T14:40:31.911Z,88345.25
2022-11-24T14:43:16.743Z,88347.63
2022-11-24T14:46:01.454Z,88344.13
2022-11-24T14:48:46.243Z,88339.75
2022-11-24T14:51:31.019Z,88341.53
2022-11-24T14:54:15.692Z,88334.44
2022-11-24T14:57:00.370Z,88337.34
2022-11-24T14:59:45.079Z,88339.94
2022-11-24T15:02:30.103Z,88335.75
2022-11-24T15:05:14.820Z,88338.16
2022-11-24T15:07:59.723Z,88328.53
2022-11-24T15:10:44.378Z,88319.38
2022-11-24T15:13:29.083Z,88320.47
2022-11-24T15:16:13.859Z,88313.19
2022-11-24T15:18:58.762Z,88311.91
2022-11-24T15:21:43.373Z,88304.41
2022-11-24T15:24:28.269Z,88301.03
2022-11-24T15:27:13.004Z,88301.59
2022-11-24T15:29:57.659Z,88298.13
2022-11-24T15:32:42.388Z,88308.38
2022-11-24T15:35:27.100Z,88311.47
2022-11-24T15:38:11.867Z,88310.78
2022-11-24T15:40:56.633Z,88315.13
2022-11-24T15:43:41.590Z,88331.88
2022-11-24T15:46:26.341Z,88335.25
2022-11-24T15:49:11.102Z,88339.25
2022-11-24T15:51:55.760Z,88349.69
2022-11-24T15:54:40.559Z,88356.66
2022-11-24T15:57:25.360Z,88351.91
2022-11-24T16:00:10.160Z,88356.72
2022-11-24T16:02:54.943Z,88359.41
2022-11-24T16:05:39.659Z,88366.34
2022-11-24T16:08:24.457Z,88367.13
2022-11-24T16:11:09.110Z,88373.28
2022-11-24T16:13:54.617Z,88380.97
2022-11-24T16:16:39.879Z,88391.41
2022-11-24T16:19:25.222Z,88393.28
2022-11-24T16:22:09.868Z,88405.22
2022-11-24T16:24:54.724Z,88409.19
2022-11-24T16:27:39.695Z,88408.13
2022-11-24T16:30:24.382Z,88409.59
2022-11-24T16:33:09.131Z,88409.88
2022-11-24T16:35:53.856Z,88408.84
2022-11-24T16:38:38.659Z,88408.16
2022-11-24T16:41:23.290Z,88409.13
2022-11-24T16:44:08.050Z,88401.09
2022-11-24T16:46:52.843Z,88400.81
2022-11-24T16:49:37.581Z,88395.00
2022-11-24T16:52:22.289Z,88394.72
2022-11-24T16:55:07.009Z,88392.13
2022-11-24T16:57:51.877Z,88392.81
2022-11-24T17:00:36.552Z,88389.03
2022-11-24T17:03:21.351Z,88399.28
2022-11-24T17:06:06.050Z,88406.81
2022-11-24T17:08:50.987Z,88402.91
2022-11-24T17:11:35.768Z,88406.69
2022-11-24T17:14:20.755Z,88405.91
2022-11-24T17:17:05.704Z,88396.69
2022-11-24T17:19:50.677Z,88399.75
2022-11-24T17:22:35.577Z,88391.75
2022-11-24T17:25:20.292Z,88389.16
2022-11-24T17:28:05.107Z,88390.78
2022-11-24T17:30:49.807Z,88389.16
2022-11-24T17:33:34.618Z,88382.03
2022-11-24T17:36:19.670Z,88390.81
2022-11-24T17:39:04.416Z,88385.53
2022-11-24T17:41:49.130Z,88393.59
2022-11-24T17:44:34.044Z,88386.19
2022-11-24T17:47:19.253Z,88391.41
2022-11-24T17:50:04.026Z,88382.16
2022-11-24T17:52:48.794Z,88380.31
2022-11-24T17:55:33.491Z,88385.13
2022-11-24T17:58:18.282Z,88383.94
2022-11-24T18:01:02.968Z,88379.94
2022-11-24T18:03:53.150Z,88384.34
2022-11-24T18:06:38.730Z,88383.38
2022-11-24T18:09:23.484Z,88374.47
2022-11-24T18:12:08.266Z,88369.28
2022-11-24T18:14:52.882Z,88367.38
2022-11-24T18:17:37.666Z,88364.53
2022-11-24T18:20:22.458Z,88363.72
2022-11-24T18:23:07.399Z,88359.00
2022-11-24T18:25:52.176Z,88356.97
2022-11-24T18:28:36.996Z,88358.88
2022-11-24T18:31:21.745Z,88370.22
2022-11-24T18:34:06.432Z,88374.47
2022-11-24T18:36:51.288Z,88389.25
2022-11-24T18:39:36.000Z,88388.34
2022-11-24T18:42:20.710Z,88394.06
2022-11-24T18:45:05.293Z,88391.47
2022-11-24T18:47:50.062Z,88384.69
2022-11-24T18:50:34.584Z,88381.44
2022-11-24T18:53:19.323Z,88390.66
2022-11-24T18:56:04.041Z,88387.84
2022-11-24T18:58:49.125Z,88383.88
2022-11-24T19:01:33.867Z,88388.06
2022-11-24T19:04:19.016Z,88385.00
2022-11-24T19:07:03.742Z,88380.94
2022-11-24T19:09:48.451Z,88384.00
2022-11-24T19:12:33.190Z,88376.75
2022-11-24T19:15:17.899Z,88376.03
2022-11-24T19:18:02.671Z,88376.78
2022-11-24T19:20:47.447Z,88380.78
2022-11-24T19:23:32.377Z,88382.91
2022-11-24T19:26:17.046Z,88378.19
2022-11-24T19:29:01.808Z,88380.63
2022-11-24T19:31:46.673Z,88374.75
2022-11-24T19:34:31.475Z,88371.91
2022-11-24T19:37:16.325Z,88364.41
2022-11-24T19:40:00.982Z,88370.34
2022-11-24T19:42:45.766Z,88371.84
2022-11-24T19:45:30.397Z,88368.47
2022-11-24T19:48:15.564Z,88369.94
2022-11-24T19:51:00.221Z,88366.38
2022-11-24T19:53:44.988Z,88371.56
2022-11-24T19:56:29.832Z,88376.00
2022-11-24T19:59:14.590Z,88372.00
2022-11-24T20:01:59.744Z,88384.00
2022-11-24T20:04:44.758Z,88385.59
2022-11-24T20:07:29.682Z,88379.00
2022-11-24T20:10:14.770Z,88377.97
2022-11-24T20:12:59.618Z,88375.84
2022-11-24T20:15:44.325Z,88376.88
2022-11-24T20:18:28.944Z,88366.97
2022-11-24T20:21:13.689Z,88365.78
2022-11-24T20:23:58.382Z,88363.69
2022-11-24T20:26:43.270Z,88355.03
2022-11-24T20:29:28.008Z,88362.59
2022-11-24T20:32:12.918Z,88355.03
2022-11-24T20:34:57.804Z,88359.72
2022-11-24T20:37:42.630Z,88367.03
2022-11-24T20:40:27.357Z,88359.50
2022-11-24T20:43:12.208Z,88365.47
2022-11-24T20:45:57.008Z,88364.91
2022-11-24T20:48:41.774Z,88367.47
2022-11-24T20:51:26.469Z,88362.72
2022-11-24T20:54:11.229Z,88372.78
2022-11-24T20:56:56.119Z,88378.16
2022-11-24T20:59:40.985Z,88382.66
2022-11-24T21:02:25.887Z,88380.22
2022-11-24T21:05:10.527Z,88381.69
2022-11-24T21:07:55.537Z,88399.81
2022-11-24T21:10:40.219Z,88404.09
2022-11-24T21:13:25.004Z,88388.34
2022-11-24T21:16:09.879Z,88393.63
2022-11-24T21:18:54.987Z,88393.16
2022-11-24T21:21:39.642Z,88390.56
2022-11-24T21:24:24.400Z,88385.13
2022-11-24T21:27:09.379Z,88388.13
2022-11-24T21:29:54.055Z,88385.50
2022-11-24T21:32:38.946Z,88387.09
2022-11-24T21:35:23.754Z,88382.19
2022-11-24T21:38:08.618Z,88376.75
2022-11-24T21:40:53.376Z,88383.50
2022-11-24T21:43:38.167Z,88378.84
2022-11-24T21:46:22.944Z,88383.03
2022-11-24T21:49:07.664Z,88395.75
2022-11-24T21:51:52.481Z,88393.16
2022-11-24T21:54:37.524Z,88401.22
2022-11-24T21:57:22.553Z,88399.13
2022-11-24T22:00:07.227Z,88397.41
2022-11-24T22:02:52.112Z,88406.09
2022-11-24T22:05:36.960Z,88406.53
2022-11-24T22:08:21.813Z,88393.84
2022-11-24T22:11:06.608Z,88383.75
2022-11-24T22:13:51.518Z,88389.63
2022-11-24T22:16:36.230Z,88384.88
2022-11-24T22:19:21.007Z,88391.69
2022-11-24T22:22:05.792Z,88397.06
2022-11-24T22:24:50.496Z,88394.50
2022-11-24T22:27:35.305Z,88386.78
2022-11-24T22:30:20.050Z,88389.88
2022-11-24T22:33:04.859Z,88378.25
2022-11-24T22:35:49.434Z,88379.38
2022-11-24T22:38:34.319Z,88379.50
2022-11-24T22:41:19.116Z,88389.25
2022-11-24T22:44:04.056Z,88383.00
2022-11-24T22:46:48.776Z,88380.50
2022-11-24T22:49:33.477Z,88380.34
2022-11-24T22:52:18.126Z,88383.22
2022-11-24T22:55:02.734Z,88379.13
2022-11-24T22:57:48.389Z,88380.94
2022-11-24T23:00:33.797Z,88365.88
2022-11-24T23:03:18.927Z,88362.84
2022-11-24T23:06:04.173Z,88354.94
2022-11-24T23:08:48.859Z,88347.66
2022-11-24T23:11:37.764Z,88348.66
2022-11-24T23:14:23.324Z,88354.25
2022-11-24T23:17:07.985Z,88359.69
2022-11-24T23:19:52.753Z,88360.25
2022-11-24T23:22:37.427Z,88363.19
2022-11-24T23:25:22.426Z,88357.88
2022-11-24T23:28:07.398Z,88368.75
2022-11-24T23:30:52.243Z,88373.28
2022-11-24T23:33:36.884Z,88375.72
2022-11-24T23:36:21.814Z,88384.97
2022-11-24T23:39:06.602Z,88387.88
2022-11-24T23:41:51.302Z,88393.78
2022-11-24T23:44:36.125Z,88401.25
2022-11-24T23:47:21.283Z,88395.09
2022-11-24T23:50:06.044Z,88400.69
2022-11-24T23:52:50.788Z,88399.56
2022-11-24T23:55:35.425Z,88395.78
2022-11-24T23:58:20.059Z,88394.06
